Monday, December 5, 2016, 11:33 AM EST

KOKV, Winchester Regional

Location: Winchester, VA, United States Lat: 39.15
Local Time: 11:33 AM EST (16:33 GMT) Lon: -78.15
Time Zone: US/Eastern Elev: 728 ft

Show me the last for .
Show Decoded

2016-12-05 11:15 METAR KOKV 051615Z AUTO 31013KT 10SM CLR 10/02 A3001 RMK AO2 =
2016-12-05 10:55 METAR KOKV 051555Z AUTO 00000KT 10SM SCT040 08/04 A3000 RMK AO2 =
2016-12-05 10:35 METAR KOKV 051535Z AUTO 00000KT 10SM BKN040 07/04 A3001 RMK AO2 =
2016-12-05 10:15 METAR KOKV 051515Z AUTO 00000KT 10SM BKN040 OVC045 05/03 A3002 RMK AO2 =
2016-12-05 09:55 METAR KOKV 051455Z AUTO 00000KT 10SM OVC039 05/03 A3002 RMK AO2 =
2016-12-05 09:35 METAR KOKV 051435Z AUTO 00000KT 10SM BKN036 OVC042 05/03 A3001 RMK AO2 =
2016-12-05 09:15 METAR KOKV 051415Z AUTO 00000KT 10SM OVC042 05/03 A3000 RMK AO2 =
2016-12-05 08:55 METAR KOKV 051355Z AUTO 00000KT 10SM OVC046 04/03 A2999 RMK AO2 =
2016-12-05 08:35 METAR KOKV 051335Z AUTO 21003KT 10SM BKN048 03/02 A2999 RMK AO2 =
2016-12-05 08:15 METAR KOKV 051315Z AUTO 17003KT 10SM BKN046 03/02 A2998 RMK AO2 =
2016-12-05 07:55 METAR KOKV 051255Z AUTO 26003KT 10SM OVC046 03/02 A2998 RMK AO2 =
2016-12-05 07:35 METAR KOKV 051235Z AUTO 00000KT 10SM SCT042 OVC050 03/02 A2998 RMK AO2 =
2016-12-05 07:15 METAR KOKV 051215Z AUTO 00000KT 10SM SCT039 OVC050 02/02 A2997 RMK AO2 =
2016-12-05 06:55 METAR KOKV 051155Z AUTO 00000KT 10SM SCT039 SCT046 OVC050 02/02 A2997 RMK AO2 =
2016-12-05 06:35 METAR KOKV 051135Z AUTO 00000KT 10SM SCT039 OVC050 02/02 A2996 RMK AO2 =
2016-12-05 06:15 METAR KOKV 051115Z AUTO 00000KT 10SM SCT041 OVC050 02/02 A2996 RMK AO2 =
2016-12-05 05:55 METAR KOKV 051055Z AUTO 00000KT 10SM SCT040 OVC050 02/02 A2996 RMK AO2 =
2016-12-05 05:35 METAR KOKV 051035Z AUTO 00000KT 10SM BKN050 OVC060 02/02 A2995 RMK AO2 =
2016-12-05 05:15 METAR KOKV 051015Z AUTO 18003KT 10SM OVC060 02/01 A2994 RMK AO2 =
2016-12-05 04:55 METAR KOKV 050955Z AUTO 17005KT 10SM OVC050 02/02 A2994 RMK AO2 =
2016-12-05 04:35 METAR KOKV 050935Z AUTO 17005KT 10SM SCT044 OVC050 02/02 A2995 RMK AO2 =
2016-12-05 04:15 METAR KOKV 050915Z AUTO 17005KT 10SM SCT045 OVC050 02/02 A2996 RMK AO2 =
2016-12-05 03:55 METAR KOKV 050855Z AUTO 18004KT 10SM BKN010 OVC055 02/02 A2995 RMK AO2 =
2016-12-05 03:35 METAR KOKV 050835Z AUTO 17004KT 10SM OVC008 02/01 A2995 RMK AO2 =
2016-12-05 03:15 METAR KOKV 050815Z AUTO 17004KT 10SM OVC006 02/01 A2995 RMK AO2 =
2016-12-05 02:55 METAR KOKV 050755Z AUTO 18004KT 10SM OVC006 02/01 A2996 RMK AO2 =
2016-12-05 02:35 METAR KOKV 050735Z AUTO 17005KT 10SM OVC006 02/01 A2996 RMK AO2 =
2016-12-05 02:15 METAR KOKV 050715Z AUTO 19004KT 10SM OVC008 02/01 A2997 RMK AO2 =
2016-12-05 01:55 METAR KOKV 050655Z AUTO 18006KT 10SM -RA OVC008 02/01 A2997 RMK AO2 P0001 =
2016-12-05 01:35 METAR KOKV 050635Z AUTO 17005KT 10SM -RA OVC010 02/01 A2996 RMK AO2 P0001 =
2016-12-05 01:15 METAR KOKV 050615Z AUTO 18005KT 5SM DZ OVC010 02/01 A2997 RMK AO2 =
2016-12-05 00:55 METAR KOKV 050555Z AUTO 18006KT 7SM DZ BKN010 OVC015 02/01 A2997 RMK AO2 =
2016-12-05 00:35 METAR KOKV 050535Z AUTO 17006KT 5SM DZ BKN010 OVC014 02/01 A2998 RMK AO2 =
2016-12-05 00:15 METAR KOKV 050515Z AUTO 17007KT 7SM DZ OVC008 02/01 A2999 RMK AO2 =
2016-12-04 23:55 METAR KOKV 050455Z AUTO 17007KT 10SM -DZ OVC008 02/01 A2999 RMK AO2 P0001 =
2016-12-04 23:35 METAR KOKV 050435Z AUTO 18007KT 7SM DZ OVC008 02/01 A3000 RMK AO2 P0001 =
2016-12-04 23:15 METAR KOKV 050415Z AUTO 18007KT 140V200 5SM RA SCT010 OVC014 02/01 A3001 RMK AO2
                 =
2016-12-04 22:55 METAR KOKV 050355Z AUTO 18008KT 5SM +RA BKN018 BKN031 OVC045 02/01 A3002 RMK AO2
                 =
2016-12-04 22:35 METAR KOKV 050335Z AUTO 16008KT 10SM SCT033 OVC048 02/00 A3003 RMK AO2 =
2016-12-04 22:15 METAR KOKV 050315Z AUTO 16008KT 7SM -DZ BKN030 OVC050 02/00 A3004 RMK AO2 =
2016-12-04 21:55 METAR KOKV 050255Z AUTO 17007KT 10SM RA OVC032 02/00 A3005 RMK AO2 P0002 =
2016-12-04 21:35 METAR KOKV 050235Z AUTO 15009KT 7SM -RA BKN034 BKN060 OVC090 02/00 A3005 RMK AO2
                 P0001 =
2016-12-04 21:15 METAR KOKV 050215Z AUTO 15008KT 10SM -RA SCT038 BKN055 OVC090 02/00 A3007 RMK
                 AO2 =
2016-12-04 20:55 METAR KOKV 050155Z AUTO 15006KT 5SM -RA OVC038 02/00 A3009 RMK AO2 P0003 =
2016-12-04 20:35 METAR KOKV 050135Z AUTO 16007KT 10SM -RA OVC040 03/00 A3010 RMK AO2 =
2016-12-04 20:15 METAR KOKV 050115Z AUTO 16006KT 10SM -RA OVC042 03/M01 A3010 RMK AO2 =
2016-12-04 19:55 METAR KOKV 050055Z AUTO 16005KT 10SM OVC044 04/M02 A3010 RMK AO2 =
2016-12-04 19:35 METAR KOKV 050035Z AUTO 15004KT 10SM BKN046 OVC050 03/M02 A3011 RMK AO2 =
2016-12-04 19:15 METAR KOKV 050015Z AUTO 13005KT 10SM BKN050 03/M01 A3011 RMK AO2 =
2016-12-04 18:55 METAR KOKV 042355Z AUTO 14004KT 10SM SCT055 SCT070 02/M02 A3012 RMK AO2 =
2016-12-04 18:35 METAR KOKV 042335Z AUTO 15003KT 10SM SCT110 03/M01 A3013 RMK AO2 =
2016-12-04 18:15 METAR KOKV 042315Z AUTO 12003KT 10SM OVC110 03/M01 A3012 RMK AO2 =
2016-12-04 17:55 METAR KOKV 042255Z AUTO 00000KT 10SM OVC120 03/M02 A3013 RMK AO2 =
2016-12-04 17:35 METAR KOKV 042235Z AUTO 09003KT 10SM OVC120 03/M01 A3013 RMK AO2 =
2016-12-04 17:15 METAR KOKV 042215Z AUTO 00000KT 10SM BKN120 03/M01 A3015 RMK AO2 =
2016-12-04 16:55 METAR KOKV 042155Z AUTO 00000KT 10SM SCT120 03/M02 A3015 RMK AO2 =
2016-12-04 16:35 METAR KOKV 042135Z AUTO 12004KT 10SM CLR 03/M02 A3015 RMK AO2 =
2016-12-04 16:15 METAR KOKV 042115Z AUTO 10003KT 10SM CLR 04/M02 A3016 RMK AO2 =
2016-12-04 15:55 METAR KOKV 042055Z AUTO 00000KT 10SM SCT120 04/M02 A3017 RMK AO2 =
2016-12-04 15:35 METAR KOKV 042035Z AUTO 00000KT 10SM BKN120 04/M02 A3017 RMK AO2 =
2016-12-04 15:15 METAR KOKV 042015Z AUTO 00000KT 10SM CLR 04/M02 A3018 RMK AO2 =
2016-12-04 14:55 METAR KOKV 041955Z AUTO 14004KT 10SM CLR 04/M02 A3018 RMK AO2 =
2016-12-04 14:35 METAR KOKV 041935Z AUTO 13004KT 10SM CLR 05/M02 A3018 RMK AO2 =
2016-12-04 14:15 METAR KOKV 041915Z AUTO 17003KT 10SM CLR 05/M02 A3018 RMK AO2 =
2016-12-04 13:55 METAR KOKV 041855Z AUTO 15003KT 10SM CLR 04/M02 A3018 RMK AO2 =
2016-12-04 13:35 METAR KOKV 041835Z AUTO 00000KT 10SM CLR 04/M02 A3020 RMK AO2 =
2016-12-04 13:15 METAR KOKV 041815Z AUTO 22003KT 10SM CLR 04/M02 A3022 RMK AO2 =
2016-12-04 12:55 METAR KOKV 041755Z AUTO 19003KT 10SM CLR 03/M02 A3022 RMK AO2 =
2016-12-04 12:35 METAR KOKV 041735Z AUTO 00000KT 10SM CLR 03/M02 A3023 RMK AO2 =
2016-12-04 12:15 METAR KOKV 041715Z AUTO 17003KT 10SM CLR 03/M02 A3024 RMK AO2 =
2016-12-04 11:55 METAR KOKV 041655Z AUTO 00000KT 10SM CLR 03/M02 A3025 RMK AO2 =
2016-12-04 11:35 METAR KOKV 041635Z AUTO 00000KT 10SM CLR 03/M02 A3025 RMK AO2 =

Support USWX by starting your Amazon purchase here.